Latest Weather Observations for Browse Island

IDW60801

Issued at 9:33 pm WST Thursday 29 September 2016 (issued every 30 minutes, with the page automatically refreshed every 10 minutes)

About weather observations | Map of weather stations | Latest weather observations for WA | Other Formats
Station Details ID: 200784 Name: BROWSE ISLAND Lat: -14.11 Lon: 123.55 Height: 3.7 m
Data from the previous 72 hours. | See also: Recent months at Browse Island
Date/Time
WST
Temp
°C
App
Temp
°C
Dew
Point
°C
Rel
Hum
%
Delta-T
°C
Wind Press
QNH
hPa
Press
MSL
hPa
Rain since
9am
mm
Dir  Spd
km/h
Gust
km/h
Spd
kts
Gust
kts
29/09:30pm 28.0 - - - - W 17 15 9 8 1009.0 - -
29/09:00pm 28.3 - - - - WSW 17 17 9 9 1009.0 1009.3 -
29/08:30pm 28.0 - - - - WSW 17 - 9 - 1009.0 - -
29/08:00pm 28.3 - - - - SW 17 - 9 - 1009.0 1008.9 -
29/07:30pm 28.0 - - - - SW 17 - 9 - 1008.0 - -
29/07:00pm 28.1 - - - - SW 17 - 9 - 1008.0 1008.3 -
29/06:30pm 28.0 - - - - SW 19 - 10 - 1008.0 - -
29/06:00pm 28.2 - - - - SSW 17 - 9 - 1007.0 1007.6 -
29/05:30pm 28.0 - - - - SSW 17 - 9 - 1007.0 - -
29/05:00pm 28.5 - - - - SSW 19 - 10 - 1006.0 1006.8 -
29/04:30pm 29.0 - - - - SSW 19 - 10 - 1006.0 - -
29/04:00pm 28.8 - - - - SSW 20 - 11 - 1006.0 1006.7 -
29/03:30pm 29.0 - - - - SSW 20 - 11 - 1006.0 - -
29/03:00pm 29.0 - - - - SSW 17 - 9 - 1006.0 1006.8 -
29/02:30pm 29.0 - - - - SSW 17 - 9 - 1007.0 - -
29/02:00pm 28.8 - - - - SSW 19 - 10 - 1007.0 1007.1 -
29/01:30pm 29.0 - - - - SSW 19 - 10 - 1007.0 - -
29/01:00pm 29.1 - - - - SSW 17 - 9 - 1007.0 1007.7 -
29/12:30pm 29.0 - - - - SSW 15 - 8 - 1008.0 - -
29/12:00pm 29.9 - - - - SW 9 - 5 - 1008.0 1008.4 -
29/11:30am 30.0 - - - - SW 7 - 4 - 1009.0 - -
29/11:00am 29.7 - - - - SW 7 - 4 - 1009.0 1009.3 -
29/10:30am 29.0 - - - - SW 9 - 5 - 1010.0 - -
29/10:00am 28.8 - - - - SW 11 - 6 - 1010.0 1010.3 -
29/09:30am 28.0 - - - - SSW 13 - 7 - 1010.0 - -
29/09:00am 28.3 - - - - SW 13 - 7 - 1010.0 1010.6 -
29/08:30am 28.0 - - - - SSW 15 - 8 - 1010.0 - -
29/08:00am 28.1 - - - - SSW 15 - 8 - 1010.0 1010.8 -
29/07:30am 28.0 - - - - SSW 17 - 9 - 1010.0 - -
29/07:00am 27.6 - - - - SSW 17 - 9 - 1010.0 1010.6 -
29/06:30am 27.0 - - - - SSW 20 - 11 - 1010.0 - -
29/06:00am 27.2 - - - - SSW 20 - 11 - 1010.0 1010.0 -
29/05:30am 27.0 - - - - SW 20 - 11 - 1009.0 - -
29/05:00am 27.1 - - - - SSW 19 - 10 - 1009.0 1009.4 -
29/04:30am 27.0 - - - - S 22 - 12 - 1009.0 - -
29/04:00am 27.1 - - - - S 24 - 13 - 1008.0 1008.8 -
29/03:30am 27.0 - - - - S 30 - 16 - 1008.0 - -
29/03:00am 27.2 - - - - SSW 28 - 15 - 1008.0 1008.5 -
29/02:30am 27.0 - - - - SW 26 - 14 - 1008.0 - -
29/02:00am 27.5 - - - - SW 28 - 15 - 1008.0 1008.3 -
29/01:30am 27.0 - - - - SW 20 - 11 - 1008.0 - -
29/01:00am 27.5 - - - - WSW 20 - 11 - 1008.0 1008.7 -
29/12:30am 28.0 - - - - WSW 19 - 10 - 1009.0 - -
29/12:00am 27.6 - - - - SW 19 - 10 - 1009.0 1009.4 -
 
Date/Time
WST
Temp
°C
App
Temp
°C
Dew
Point
°C
Rel
Hum
%
Delta-T
°C
Wind Press
QNH
hPa
Press
MSL
hPa
Rain since
9am
mm
Dir  Spd
km/h
Gust
km/h
Spd
kts
Gust
kts
28/11:30pm 28.0 - - - - SW 19 - 10 - 1009.0 - -
28/11:00pm 27.5 - - - - WSW 19 - 10 - 1010.0 1010.1 -
28/10:30pm 28.0 - - - - WSW 19 - 10 - 1010.0 - -
28/10:00pm 27.7 - - - - SW 17 - 9 - 1010.0 1010.5 -
28/09:30pm 28.0 - - - - SW 17 - 9 - 1010.0 - -
28/09:00pm 27.6 - - - - SW 17 - 9 - 1010.0 1010.5 -
28/08:30pm 28.0 - - - - SSW 15 - 8 - 1010.0 - -
28/08:00pm 27.5 - - - - SW 17 - 9 - 1010.0 1010.1 -
28/07:30pm 27.0 - - - - SW 15 - 8 - 1010.0 - -
28/07:00pm 27.5 - - - - SW 17 - 9 - 1009.0 1009.8 -
28/06:30pm 28.0 - - - - SSW 15 - 8 - 1009.0 - -
28/06:00pm 27.6 - - - - SSW 15 - 8 - 1009.0 1009.2 -
28/05:30pm 28.0 - - - - S 11 - 6 - 1008.0 - -
28/05:00pm 27.6 - - - - S 13 - 7 - 1008.0 1008.6 -
28/04:30pm 28.0 - - - - S 17 - 9 - 1008.0 - -
28/04:00pm 27.7 - - - - S 19 - 10 - 1008.0 1008.4 -
28/03:30pm 28.0 - - - - S 22 - 12 - 1008.0 - -
28/03:00pm 27.8 - - - - S 22 - 12 - 1008.0 1008.6 -
28/02:30pm 28.0 - - - - S 20 - 11 - 1008.0 - -
28/02:00pm 28.1 - - - - S 20 - 11 - 1009.0 1009.0 -
28/01:30pm 28.0 - - - - S 22 - 12 - 1009.0 - -
28/01:00pm 28.1 - - - - S 22 - 12 - 1009.0 1009.8 -
28/12:30pm 28.0 - - - - S 22 - 12 - 1010.0 - -
28/12:00pm 28.1 - - - - S 20 - 11 - 1010.0 1010.6 -
28/11:30am 28.0 - - - - S 22 - 12 - 1011.0 - -
28/11:00am 28.0 - - - - S 20 - 11 - 1011.0 1011.4 -
28/10:30am 28.0 - - - - S 17 - 9 - 1011.0 - -
28/10:00am 27.8 - - - - S 15 - 8 - 1012.0 1012.0 -
28/09:30am 28.0 - - - - S 15 - 8 - 1012.0 - -
28/09:00am 27.5 - - - - S 17 - 9 - 1012.0 1012.1 -
28/08:30am 28.0 - - - - S 19 - 10 - 1012.0 - -
28/08:00am 27.4 - - - - S 15 - 8 - 1012.0 1012.0 -
28/07:30am 28.0 - - - - S 17 - 9 - 1012.0 - -
28/07:00am 27.3 - - - - S 17 - 9 - 1011.0 1011.7 -
28/06:30am 27.0 - - - - S 17 - 9 - 1011.0 - -
28/06:00am 27.1 - - - - S 20 - 11 - 1010.0 1010.8 -
28/05:30am 27.0 - - - - S 20 - 11 - 1010.0 - -
28/05:00am 27.1 - - - - S 20 - 11 - 1010.0 1009.9 -
28/04:30am 27.0 - - - - SSW 22 - 12 - 1009.0 - -
28/04:00am 27.2 - - - - SSW 22 - 12 - 1009.0 1009.5 -
28/03:30am 27.0 - - - - SW 20 - 11 - 1009.0 - -
28/03:00am 27.2 - - - - SW 20 - 11 - 1009.0 1009.1 -
28/02:30am 27.0 - - - - SW 20 - 11 - 1009.0 - -
28/02:00am 27.2 - - - - SW 20 - 11 - 1009.0 1009.3 -
28/01:30am 27.0 - - - - SSW 19 - 10 - 1009.0 - -
28/01:00am 27.4 - - - - SW 20 - 11 - 1009.0 1009.8 -
28/12:30am 28.0 - - - - SW 20 - 11 - 1010.0 - -
28/12:00am 27.5 - - - - SW 20 - 11 - 1010.0 1010.4 -
 
Date/Time
WST
Temp
°C
App
Temp
°C
Dew
Point
°C
Rel
Hum
%
Delta-T
°C
Wind Press
QNH
hPa
Press
MSL
hPa
Rain since
9am
mm
Dir  Spd
km/h
Gust
km/h
Spd
kts
Gust
kts
27/11:30pm 28.0 - - - - SW 19 - 10 - 1010.0 - -
27/11:00pm 27.7 - - - - SW 20 - 11 - 1010.0 1010.7 -
27/10:30pm 28.0 - - - - WSW 20 - 11 - 1011.0 - -
27/10:00pm 27.9 - - - - WSW 19 - 10 - 1011.0 1011.2 -
27/09:30pm 28.0 - - - - WSW 19 - 10 - 1011.0 - -
27/09:00pm 27.7 - - - - SW 17 - 9 - 1011.0 1011.4 -
27/08:30pm 28.0 - - - - SW 15 - 8 - 1011.0 - -
27/08:00pm 27.9 - - - - SW 15 - 8 - 1011.0 1011.3 -
27/07:30pm 28.0 - - - - SW 15 - 8 - 1011.0 - -
27/07:00pm 27.9 - - - - SW 13 - 7 - 1010.0 1010.7 -
27/06:30pm 28.0 - - - - SSW 15 - 8 - 1010.0 - -
27/06:00pm 27.7 - - - - SSW 15 - 8 - 1010.0 1010.0 -
27/05:30pm 28.0 - - - - SSW 15 - 8 - 1009.0 - -
27/05:00pm 27.7 - - - - S 15 - 8 - 1009.0 1009.3 -
27/04:30pm 28.0 - - - - SSW 15 - 8 - 1009.0 - -
27/04:00pm 27.8 - - - - SSW 17 - 9 - 1009.0 1009.1 -
27/03:30pm 28.0 - - - - SSW 15 - 8 - 1009.0 - -
27/03:00pm 28.4 - - - - SSW 11 - 6 - 1009.0 1008.9 -
27/02:30pm 29.0 - - - - SSW 11 - 6 - 1009.0 - -
27/02:00pm 28.6 - - - - SSW 13 - 7 - 1009.0 1009.4 -
27/01:30pm 28.0 - - - - SW 15 - 8 - 1009.0 - -
27/01:00pm 28.1 - - - - SSW 15 - 8 - 1009.0 1009.6 -
27/12:30pm 28.0 - - - - SSW 13 - 7 - 1010.0 - -
27/12:00pm 28.1 - - - - SSW 13 - 7 - 1010.0 1010.4 -
27/11:30am 28.0 - - - - SSW 13 - 7 - 1010.0 - -
27/11:00am 27.7 - - - - SSW 15 - 8 - 1011.0 1011.2 -
27/10:30am 28.0 - - - - SSW 13 - 7 - 1011.0 - -
27/10:00am 27.5 - - - - S 13 - 7 - 1012.0 1011.9 -
27/09:30am 28.0 - - - - S 17 - 9 - 1012.0 - -
27/09:00am 27.5 - - - - S 15 - 8 - 1012.0 1012.3 -
27/08:30am 27.0 - - - - S 17 - 9 - 1012.0 - -
27/08:00am 27.3 - - - - S 20 - 11 - 1012.0 1012.0 -
27/07:30am 27.0 - - - - SSW 19 - 10 - 1011.0 - -
27/07:00am 27.1 - - - - SSW 20 - 11 - 1011.0 1011.5 -
27/06:30am 27.0 - - - - SSW 20 - 11 - 1011.0 - -
27/06:00am 26.8 - - - - SSW 19 - 10 - 1011.0 1011.0 -
27/05:30am 27.0 - - - - SSW 20 - 11 - 1011.0 - -
27/05:00am 26.7 - - - - SSW 22 - 12 - 1010.0 1010.7 -
27/04:30am 27.0 - - - - SSW 22 - 12 - 1010.0 - -
27/04:00am 26.7 - - - - SSW 24 - 13 - 1010.0 1010.1 -
27/03:30am 27.0 - - - - SSW 22 - 12 - 1010.0 - -
27/03:00am 26.5 - - - - SSW 24 - 13 - 1010.0 1009.9 -
27/02:30am 27.0 - - - - SSW 26 - 14 - 1009.0 - -
27/02:00am 27.1 - - - - SW 26 - 14 - 1009.0 1009.7 -
27/01:30am 27.0 - - - - SW 28 - 15 - 1009.0 - -
27/01:00am 27.0 - - - - SW 28 - 15 - 1009.0 1009.8 -
27/12:30am 27.0 - - - - WSW 26 - 14 - 1010.0 - -
27/12:00am 27.0 - - - - WSW 28 - 15 - 1010.0 1010.3 -
 
Date/Time
WST
Temp
°C
App
Temp
°C
Dew
Point
°C
Rel
Hum
%
Delta-T
°C
Wind Press
QNH
hPa
Press
MSL
hPa
Rain since
9am
mm
Dir  Spd
km/h
Gust
km/h
Spd
kts
Gust
kts
26/11:30pm 27.0 - - - - WSW 26 - 14 - 1010.0 - -
26/11:00pm 27.3 - - - - SW 24 - 13 - 1011.0 1011.4 -
26/10:30pm 27.0 - - - - SW 22 - 12 - 1011.0 - -
26/10:00pm 27.0 - - - - SW 20 - 11 - 1011.0 1011.8 -

Other Formats:

Comma delimited format used in spreadsheet applications
http://www.bom.gov.au/fwo/IDW60801/IDW60801.94103.axf

JavaScript Object Notation format (JSON) in row-major order
http://www.bom.gov.au/fwo/IDW60801/IDW60801.94103.json